EGPD Airport Information

Runway Information
Runway 05 Length 1893 ft width 151 ft
Elevation 203 ft Threshold 0 ft Heading 46
Runway 23 Length 1893 ft Width 151 ft
Elevation 190 ft Threshold 0 ft Heading 226
Runway 14 Length 2165 ft width 75 ft
Elevation 200 ft Threshold 0 ft Heading 139
Runway 32 Length 2165 ft Width 75 ft
Elevation 197 ft Threshold 0 ft Heading 319
Runway 16 Length 6001 ft width 151 ft
Elevation 203 ft Threshold 0 ft Heading 158
Runway 34 Length 6001 ft Width 151 ft
Elevation 215 ft Threshold 0 ft Heading 338
Runway 18 Length 853 ft width 75 ft
Elevation 200 ft Threshold 0 ft Heading 179
Runway 36 Length 853 ft Width 75 ft
Elevation 199 ft Threshold 0 ft Heading 359
Airport Frequencies
Type APP Name ABERDEEN A Frequency 119.05 MHZ
Type ATIS Name ABERDEEN A Frequency 114.3 MHZ
Type GND Name ABERDEEN G Frequency 121.7 MHZ
Type INFO Name ABERDEEN I Frequency 135.175 MHZ
Type TWR Name ABERDEEN T Frequency 118.1 MHZ
Airport Navaids
Type VOR-DME Name Aberdeen Frequency 114300 KHZ
Type NDB Name Aberdeen Frequency 336 KHZ
Type NDB Name Aberdeen/Dyce Frequency 348 KHZ
Airport Weather Information & NOTAM
ADDS - METARS form results

(1755 UTC 17 October 2018)
Data provider http://aviationweather.gov/metar/data/
 
METAR text: EGPD 171750Z AUTO 27008KT 9999 NCD 09/03 Q1021 NOSIG
Conditions at: EGPD (ABERDEEN/DYCE , GB) observed 1750 UTC 17 October 2018
Temperature: 9.0°C (48°F)
Dewpoint: 3.0°C (37°F) [RH = 66%]
Pressure (altimeter): 30.15 inches Hg (1021.0 mb)
Winds: from the W (270 degrees) at 9 MPH (8 knots; 4.1 m/s)
Visibility: 6 or more miles (10+ km)
Ceiling: at least 12,000 feet AGL
Clouds: sky clear below 12,000 feet AGL
Weather: no significant weather observed at this time

METAR text: EGPD 171720Z AUTO 27008KT 9999 NCD 10/04 Q1020
Conditions at: EGPD (ABERDEEN/DYCE , GB) observed 1720 UTC 17 October 2018
Temperature: 10.0°C (50°F)
Dewpoint: 4.0°C (39°F) [RH = 66%]
Pressure (altimeter): 30.12 inches Hg (1020.0 mb)
Winds: from the W (270 degrees) at 9 MPH (8 knots; 4.1 m/s)
Visibility: 6 or more miles (10+ km)
Ceiling: at least 12,000 feet AGL
Clouds: sky clear below 12,000 feet AGL
Weather: no significant weather observed at this time

Forecast for: EGPD (ABERDEEN/DYCE , GB)
Text: TAF EGPD 171654Z 1718/1818 27007KT 9999 FEW030
Forecast period: 1800 UTC 17 October 2018 to 1800 UTC 18 October 2018
Forecast type: FROM: standard forecast or significant change
Winds: from the W (270 degrees) at 8 MPH (7 knots; 3.6 m/s)
Visibility: 6 or more miles 10+ km)
Ceiling: at least 12,000 feet AGL
Clouds: few clouds at 3000 feet AGL
Weather: no significant weather forecast for this period